Time;durP1;ratioP1;P1;durP2;ratioP2;P2;SDS_P1;SDS_P2;PMS_P1;PMS_P2;Temp;Humidity;BMP_temperature;BMP_pressure;BME280_temperature;BME280_humidity;BME280_pressure;Samples;Min_cycle;Max_cycle;Signal;HPM_P1;HPM_P2
2023/06/02 00:01:33;;;;;;;9.30;5.78;;;;;;;14.05;100.00;93792.31;5047439;28;20059;-59
2023/06/02 00:04:01;;;;;;;10.05;5.95;;;;;;;13.97;100.00;93794.50;5058344;28;20050;-60
2023/06/02 00:06:37;;;;;;;9.80;6.22;;;;;;;13.61;100.00;93792.81;5048840;28;20037;-59
2023/06/02 00:09:04;;;;;;;9.07;6.30;;;;;;;13.45;100.00;93790.88;5049152;28;20037;-61
2023/06/02 00:11:35;;;;;;;9.75;6.50;;;;;;;13.51;100.00;93794.66;5040223;28;20036;-59
2023/06/02 00:14:04;;;;;;;18.10;12.45;;;;;;;13.55;100.00;93795.31;5057440;28;20045;-59
2023/06/02 00:16:34;;;;;;;11.63;8.07;;;;;;;13.58;100.00;93794.47;5046640;28;20486;-63
2023/06/02 00:19:01;;;;;;;9.52;6.40;;;;;;;13.65;100.00;93792.72;5048462;28;20067;-63
2023/06/02 00:21:29;;;;;;;9.47;6.17;;;;;;;13.70;100.00;93784.66;5040612;28;20041;-59
2023/06/02 00:23:55;;;;;;;10.77;6.50;;;;;;;13.75;100.00;93792.38;5051399;28;20044;-60
2023/06/02 00:26:22;;;;;;;8.82;6.63;;;;;;;13.77;100.00;93786.44;5042395;28;20474;-56
2023/06/02 00:28:51;;;;;;;9.65;6.10;;;;;;;13.81;100.00;93784.34;5053008;28;20048;-59
2023/06/02 00:31:17;;;;;;;10.45;6.28;;;;;;;13.82;100.00;93785.88;5041495;28;20044;-59
2023/06/02 00:33:44;;;;;;;8.60;6.30;;;;;;;13.86;100.00;93785.78;5042614;28;20079;-63
2023/06/02 00:36:11;;;;;;;9.02;6.55;;;;;;;13.86;100.00;93785.78;5051731;28;20063;-60
2023/06/02 00:38:39;;;;;;;12.57;8.63;;;;;;;13.84;100.00;93785.44;5048177;28;20493;-59
2023/06/02 00:41:06;;;;;;;48.25;30.77;;;;;;;13.77;100.00;93784.44;5048550;28;20044;-63
2023/06/02 00:43:32;;;;;;;20.98;14.18;;;;;;;13.77;100.00;93783.69;5057364;28;20054;-59
2023/06/02 00:45:59;;;;;;;13.37;8.20;;;;;;;13.72;100.00;93781.44;5031357;28;20106;-62
2023/06/02 00:48:26;;;;;;;10.38;6.07;;;;;;;13.73;100.00;93781.03;5045024;28;20135;-61
2023/06/02 00:50:53;;;;;;;9.05;5.80;;;;;;;13.73;100.00;93780.25;5041103;28;20041;-59
2023/06/02 00:53:20;;;;;;;8.18;5.35;;;;;;;13.73;100.00;93783.00;5057236;28;20504;-59
2023/06/02 00:55:50;;;;;;;10.02;5.95;;;;;;;13.69;100.00;93776.81;5030018;28;20041;-63
2023/06/02 00:58:17;;;;;;;7.53;5.43;;;;;;;13.65;100.00;93776.94;5044810;28;20159;-59
2023/06/02 01:00:44;;;;;;;70.50;43.05;;;;;;;13.53;100.00;93772.16;5051182;28;20120;-59
2023/06/02 01:03:14;;;;;;;58.30;33.85;;;;;;;13.54;100.00;93768.97;5032869;28;20033;-59
2023/06/02 01:05:45;;;;;;;18.35;12.05;;;;;;;13.52;100.00;93771.41;5050200;28;20040;-59
2023/06/02 01:08:15;;;;;;;13.98;9.40;;;;;;;13.51;100.00;93769.06;5032946;28;20041;-61
2023/06/02 01:10:43;;;;;;;11.00;7.03;;;;;;;13.49;100.00;93766.75;5045309;28;20071;-58
2023/06/02 01:13:09;;;;;;;9.07;6.40;;;;;;;13.50;100.00;93770.28;5029867;28;20049;-59
2023/06/02 01:15:36;;;;;;;10.05;6.20;;;;;;;13.48;100.00;93765.22;5054931;28;20067;-62
2023/06/02 01:18:10;;;;;;;11.95;6.50;;;;;;;13.45;100.00;93768.84;5030741;28;20059;-59
2023/06/02 01:20:44;;;;;;;9.10;6.03;;;;;;;13.40;100.00;93758.38;5066395;28;20415;-59
2023/06/02 01:23:16;;;;;;;8.47;6.30;;;;;;;13.37;100.00;93760.00;5040946;28;20386;-62
2023/06/02 01:25:44;;;;;;;8.73;5.93;;;;;;;13.33;100.00;93758.56;5034690;28;20052;-60
2023/06/02 01:28:12;;;;;;;7.85;5.93;;;;;;;13.36;100.00;93761.22;5048900;28;20048;-60
2023/06/02 01:30:39;;;;;;;8.75;6.40;;;;;;;13.33;100.00;93767.59;5046241;28;20045;-62
2023/06/02 01:33:34;;;;;;;11.90;6.43;;;;;;;13.28;100.00;93768.13;5042114;28;20043;-59
2023/06/02 01:36:01;;;;;;;10.43;6.27;;;;;;;13.26;100.00;93762.25;5063845;28;20439;-63
2023/06/02 01:38:31;;;;;;;9.38;6.72;;;;;;;13.24;100.00;93763.88;5033797;28;20040;-60
2023/06/02 01:41:02;;;;;;;10.15;6.28;;;;;;;13.12;100.00;93763.44;5069447;28;20037;-60
2023/06/02 01:43:32;;;;;;;8.32;6.18;;;;;;;13.07;100.00;93752.94;5051250;28;20052;-60
2023/06/02 01:46:00;;;;;;;8.30;6.45;;;;;;;12.94;100.00;93758.41;5060539;28;20054;-60
2023/06/02 01:48:31;;;;;;;8.30;5.77;;;;;;;12.93;100.00;93765.09;5059731;28;20033;-60
2023/06/02 01:50:57;;;;;;;8.80;6.25;;;;;;;12.86;100.00;93762.56;5051969;28;20465;-59
2023/06/02 01:53:27;;;;;;;10.32;6.43;;;;;;;12.86;100.00;93759.00;5056232;28;20121;-59
2023/06/02 01:55:54;;;;;;;9.00;6.38;;;;;;;12.84;100.00;93764.19;5059586;28;20555;-59
2023/06/02 01:58:21;;;;;;;10.23;6.40;;;;;;;12.79;100.00;93774.50;5051812;28;20048;-59
2023/06/02 02:00:48;;;;;;;9.10;6.70;;;;;;;12.79;100.00;93774.50;5039166;28;21786;-61
2023/06/02 02:03:15;;;;;;;10.55;6.53;;;;;;;12.78;100.00;93766.72;5033956;28;20055;-59
2023/06/02 02:05:42;;;;;;;9.13;6.82;;;;;;;12.75;100.00;93762.81;5060233;28;20044;-60
2023/06/02 02:08:12;;;;;;;9.43;6.53;;;;;;;12.74;100.00;93766.78;5045376;28;20037;-60
2023/06/02 02:10:39;;;;;;;9.27;6.20;;;;;;;12.71;100.00;93767.66;5040289;28;20041;-59
2023/06/02 02:13:06;;;;;;;10.77;6.00;;;;;;;12.66;100.00;93770.19;5033884;28;20038;-58
2023/06/02 02:15:32;;;;;;;10.18;6.20;;;;;;;12.62;100.00;93772.25;5037256;28;20068;-59
2023/06/02 02:17:59;;;;;;;8.50;6.32;;;;;;;12.62;100.00;93772.25;5051426;28;20048;-63
2023/06/02 02:20:26;;;;;;;9.55;5.88;;;;;;;12.59;100.00;93773.88;5032735;28;20414;-60
2023/06/02 02:22:53;;;;;;;9.38;6.03;;;;;;;12.52;100.00;93766.56;5047103;28;20041;-63
2023/06/02 02:25:20;;;;;;;8.30;5.90;;;;;;;12.47;100.00;93767.06;5047503;28;20393;-59
2023/06/02 02:27:47;;;;;;;10.52;6.30;;;;;;;12.44;100.00;93764.44;5050370;28;20366;-58
2023/06/02 02:30:14;;;;;;;8.50;6.07;;;;;;;12.38;100.00;93770.44;5061625;28;20037;-59
2023/06/02 02:32:45;;;;;;;9.57;6.00;;;;;;;12.34;100.00;93766.25;5050312;28;20049;-59
2023/06/02 02:35:12;;;;;;;9.45;6.10;;;;;;;12.29;100.00;93764.75;5046399;28;20111;-58
2023/06/02 02:37:39;;;;;;;8.73;5.90;;;;;;;12.26;100.00;93768.38;5050497;28;20055;-59
2023/06/02 02:40:13;;;;;;;7.50;5.45;;;;;;;12.19;100.00;93769.34;5054656;28;20043;-61
2023/06/02 02:42:40;;;;;;;8.45;5.70;;;;;;;12.16;100.00;93761.94;5055454;28;20037;-60
2023/06/02 02:45:08;;;;;;;9.90;5.60;;;;;;;12.10;100.00;93766.41;5034306;28;20044;-58
2023/06/02 02:47:35;;;;;;;9.93;5.43;;;;;;;12.02;100.00;93767.00;5041616;28;20086;-58
2023/06/02 02:50:02;;;;;;;9.57;5.43;;;;;;;11.96;100.00;93780.47;5050845;28;20071;-59
2023/06/02 02:52:29;;;;;;;6.80;5.10;;;;;;;11.81;100.00;93769.00;5052711;28;20041;-59
2023/06/02 02:54:56;;;;;;;7.57;5.20;;;;;;;11.75;100.00;93773.44;5048227;28;20049;-62
2023/06/02 02:57:23;;;;;;;9.23;5.32;;;;;;;11.73;100.00;93778.59;5030277;28;20091;-56
2023/06/02 02:59:50;;;;;;;10.23;5.65;;;;;;;11.69;100.00;93772.41;5055952;28;20411;-64
2023/06/02 03:02:17;;;;;;;8.43;5.77;;;;;;;11.69;100.00;93770.44;5050820;28;20147;-61
2023/06/02 03:04:45;;;;;;;7.93;5.40;;;;;;;11.67;100.00;93772.84;5035350;28;20078;-58
2023/06/02 03:07:12;;;;;;;8.43;6.07;;;;;;;11.68;100.00;93771.63;5039046;28;20037;-59
2023/06/02 03:09:40;;;;;;;9.60;5.90;;;;;;;11.64;100.00;93775.66;5040532;28;20442;-59
2023/06/02 03:12:07;;;;;;;8.73;5.93;;;;;;;11.62;100.00;93773.34;5050453;28;20047;-60
2023/06/02 03:14:34;;;;;;;9.63;5.87;;;;;;;11.60;100.00;93768.25;5071344;28;20153;-62
2023/06/02 03:17:01;;;;;;;9.95;6.25;;;;;;;11.59;100.00;93771.47;5039565;28;20040;-59
2023/06/02 03:19:28;;;;;;;10.00;6.55;;;;;;;11.53;100.00;93779.44;5038878;28;20378;-60
2023/06/02 03:21:58;;;;;;;9.18;5.97;;;;;;;11.51;100.00;93778.28;5026686;28;20041;-58
2023/06/02 03:24:25;;;;;;;9.85;6.32;;;;;;;11.46;100.00;93776.81;5058948;28;20345;-60
2023/06/02 03:26:52;;;;;;;7.83;6.20;;;;;;;11.44;100.00;93776.47;5030359;28;20050;-58
2023/06/02 03:29:19;;;;;;;8.88;5.90;;;;;;;11.43;100.00;93772.19;5038148;28;20366;-59
2023/06/02 03:31:49;;;;;;;8.95;5.70;;;;;;;11.39;100.00;93771.47;5047400;28;20049;-59
2023/06/02 03:34:15;;;;;;;9.57;6.32;;;;;;;11.35;100.00;93770.78;5039646;28;20037;-59
2023/06/02 03:36:43;;;;;;;9.25;5.78;;;;;;;11.22;100.00;93767.88;5049172;28;20044;-59
2023/06/02 03:39:10;;;;;;;8.63;5.33;;;;;;;11.26;100.00;93773.31;5047331;28;20065;-60
2023/06/02 03:41:37;;;;;;;8.88;5.50;;;;;;;11.27;100.00;93772.09;5057461;28;20392;-59
2023/06/02 03:44:05;;;;;;;8.55;5.75;;;;;;;11.31;100.00;93781.06;5051073;28;20090;-62
2023/06/02 03:46:32;;;;;;;8.43;5.80;;;;;;;11.30;100.00;93772.03;5046915;28;20040;-62
2023/06/02 03:48:59;;;;;;;69.45;39.42;;;;;;;11.37;100.00;93771.13;5049108;28;20432;-58
2023/06/02 03:51:26;;;;;;;18.23;11.57;;;;;;;11.40;100.00;93773.78;5031820;28;20042;-58
2023/06/02 03:53:53;;;;;;;12.63;8.20;;;;;;;11.40;100.00;93770.28;5049266;28;20048;-61
2023/06/02 03:56:20;;;;;;;11.80;6.90;;;;;;;11.43;100.00;93768.63;5054851;28;20079;-59
2023/06/02 03:58:46;;;;;;;9.43;6.40;;;;;;;11.50;100.00;93774.00;5037125;28;20048;-58
2023/06/02 04:01:15;;;;;;;9.52;6.40;;;;;;;11.50;100.00;93774.00;5035280;28;20381;-61
2023/06/02 04:03:42;;;;;;;9.37;6.20;;;;;;;11.50;100.00;93780.25;5028987;28;20364;-59
2023/06/02 04:06:09;;;;;;;9.38;6.68;;;;;;;11.60;100.00;93779.25;5029545;28;20037;-58
2023/06/02 04:08:36;;;;;;;10.43;7.13;;;;;;;11.53;100.00;93787.66;5028718;28;20060;-59
2023/06/02 04:11:03;;;;;;;13.13;7.47;;;;;;;11.23;100.00;93774.16;5042625;28;20037;-59
2023/06/02 04:13:30;;;;;;;11.90;8.13;;;;;;;10.98;100.00;93775.41;5030427;28;20038;-59
2023/06/02 04:15:57;;;;;;;12.47;8.37;;;;;;;11.16;100.00;93786.81;5034341;28;20029;-60
2023/06/02 04:18:26;;;;;;;14.98;8.15;;;;;;;11.32;100.00;93780.63;5022588;28;20151;-62
2023/06/02 04:20:52;;;;;;;12.73;7.65;;;;;;;11.38;100.00;93789.91;5049076;28;20401;-59
2023/06/02 04:23:19;;;;;;;11.13;7.00;;;;;;;11.67;100.00;93789.34;5049074;28;20041;-59
2023/06/02 04:25:46;;;;;;;11.93;7.70;;;;;;;11.80;100.00;93792.19;5036208;28;20037;-58
2023/06/02 04:28:12;;;;;;;12.27;7.87;;;;;;;11.77;100.00;93795.78;5024824;28;20056;-59
2023/06/02 04:30:39;;;;;;;11.45;7.47;;;;;;;11.90;100.00;93791.22;5030942;28;20044;-63
2023/06/02 04:33:06;;;;;;;14.65;9.15;;;;;;;11.76;100.00;93791.50;5049025;28;20401;-60
2023/06/02 04:35:35;;;;;;;16.38;11.30;;;;;;;11.94;100.00;93786.41;5048244;28;20053;-62
2023/06/02 04:38:03;;;;;;;13.43;8.43;;;;;;;11.95;100.00;93785.22;5060095;28;20036;-62
2023/06/02 04:40:29;;;;;;;10.90;7.97;;;;;;;11.95;100.00;93784.44;5055997;28;20393;-59
2023/06/02 04:42:56;;;;;;;13.88;7.25;;;;;;;11.92;100.00;93793.53;5049817;28;20052;-58
2023/06/02 04:45:23;;;;;;;14.32;8.02;;;;;;;11.88;100.00;93799.09;5032985;28;20068;-63
2023/06/02 04:47:50;;;;;;;14.25;7.68;;;;;;;11.95;100.00;93790.72;5045245;28;20036;-59
2023/06/02 04:50:17;;;;;;;11.90;8.45;;;;;;;12.05;100.00;93796.38;5040744;28;20177;-61
2023/06/02 04:52:44;;;;;;;11.37;7.83;;;;;;;12.24;100.00;93794.78;5038970;28;20041;-60
2023/06/02 04:55:11;;;;;;;11.90;7.90;;;;;;;12.36;100.00;93794.09;5057704;28;20056;-59
2023/06/02 04:57:39;;;;;;;13.00;8.43;;;;;;;12.39;100.00;93802.28;5032201;28;20071;-59
2023/06/02 05:00:07;;;;;;;11.68;8.30;;;;;;;12.54;100.00;93794.44;5027560;28;20397;-59
2023/06/02 05:02:35;;;;;;;17.05;9.30;;;;;;;12.49;100.00;93791.41;5030335;28;20049;-59
2023/06/02 05:05:02;;;;;;;15.33;9.27;;;;;;;12.54;100.00;93788.94;5036261;28;20036;-62
2023/06/02 05:07:29;;;;;;;13.20;8.68;;;;;;;12.50;100.00;93785.50;5034738;28;20044;-62
2023/06/02 05:09:56;;;;;;;11.98;8.90;;;;;;;12.45;100.00;93790.72;5036495;28;20041;-60
2023/06/02 05:12:25;;;;;;;16.80;8.13;;;;;;;12.65;100.00;93798.91;5065331;28;20033;-63
2023/06/02 05:14:53;;;;;;;14.38;8.90;;;;;;;12.57;100.00;93798.28;5038992;28;20036;-61
2023/06/02 05:17:24;;;;;;;12.83;8.30;;;;;;;12.72;100.00;93796.75;5046434;28;20033;-64
2023/06/02 05:19:53;;;;;;;13.82;8.63;;;;;;;13.35;100.00;93789.22;5045492;28;20688;-59
2023/06/02 05:22:20;;;;;;;15.38;8.55;;;;;;;14.73;100.00;93792.94;5064413;28;20055;-59
2023/06/02 05:24:47;;;;;;;12.05;8.50;;;;;;;16.36;89.60;93789.47;5036999;28;20045;-68
2023/06/02 05:27:13;;;;;;;11.93;8.50;;;;;;;18.48;78.07;93783.06;5034750;28;20041;-59
2023/06/02 05:29:40;;;;;;;12.13;8.70;;;;;;;17.56;76.22;93786.84;5033727;28;20037;-59
2023/06/02 05:32:08;;;;;;;10.77;8.60;;;;;;;16.53;84.70;93787.94;5044656;28;20101;-59
2023/06/02 05:34:35;;;;;;;15.70;8.80;;;;;;;18.02;78.03;93791.56;5035774;28;20065;-61
2023/06/02 05:37:02;;;;;;;12.63;8.38;;;;;;;18.76;73.16;93778.91;5034281;28;20045;-60
2023/06/02 05:39:29;;;;;;;12.68;9.32;;;;;;;16.51;82.49;93790.41;5032284;28;20041;-60
2023/06/02 05:41:57;;;;;;;11.07;8.30;;;;;;;17.74;79.38;93786.06;5038412;28;20044;-60
2023/06/02 05:44:23;;;;;;;11.07;8.32;;;;;;;20.47;65.59;93784.41;5055865;28;20045;-60
2023/06/02 05:46:50;;;;;;;13.93;8.15;;;;;;;21.25;61.28;93783.19;5065646;28;20043;-59
2023/06/02 05:49:17;;;;;;;12.63;8.50;;;;;;;18.87;69.50;93789.53;5049501;28;20044;-57
2023/06/02 05:51:44;;;;;;;13.02;8.55;;;;;;;19.92;67.12;93785.78;5055173;28;20048;-57
2023/06/02 05:54:12;;;;;;;14.70;8.40;;;;;;;20.96;61.70;93782.06;5039454;28;20065;-60
2023/06/02 05:56:38;;;;;;;11.55;8.30;;;;;;;20.09;63.56;93797.22;5042754;28;20060;-58
2023/06/02 05:59:05;;;;;;;11.45;8.00;;;;;;;19.68;64.81;93802.53;5038281;28;20543;-60
2023/06/02 06:01:32;;;;;;;12.05;7.65;;;;;;;20.15;66.29;93800.09;5034035;28;20049;-57
2023/06/02 06:03:59;;;;;;;10.40;8.13;;;;;;;20.27;61.88;93796.25;5055718;28;20051;-57
2023/06/02 06:06:26;;;;;;;12.13;7.60;;;;;;;23.48;53.93;93784.06;5033843;28;20041;-62
2023/06/02 06:08:53;;;;;;;11.93;8.07;;;;;;;20.00;61.69;93793.75;5046246;28;20051;-57
2023/06/02 06:11:21;;;;;;;11.57;7.63;;;;;;;22.40;56.12;93793.84;5059147;28;20033;-58
2023/06/02 06:13:48;;;;;;;12.13;7.40;;;;;;;24.19;50.13;93784.03;5060861;28;20351;-60
2023/06/02 06:16:15;;;;;;;13.55;7.60;;;;;;;23.41;49.33;93782.53;5047274;28;20045;-57
2023/06/02 06:18:42;;;;;;;11.87;8.20;;;;;;;22.87;49.21;93782.47;5037047;28;20067;-57
2023/06/02 06:21:09;;;;;;;22.33;7.75;;;;;;;24.32;48.03;93775.84;5034156;28;20424;-58
2023/06/02 06:23:35;;;;;;;11.77;7.28;;;;;;;25.46;44.42;93782.13;5048761;28;20041;-58
2023/06/02 06:26:02;;;;;;;13.80;8.02;;;;;;;24.09;44.90;93780.69;5054561;28;20041;-63
2023/06/02 06:28:29;;;;;;;9.68;8.45;;;;;;;22.29;48.18;93788.91;5049884;28;20421;-58
2023/06/02 06:30:56;;;;;;;10.63;7.80;;;;;;;21.40;54.30;93777.56;5021976;28;20037;-62
2023/06/02 06:33:23;;;;;;;11.77;8.10;;;;;;;21.76;52.40;93781.78;5029527;28;20432;-56
2023/06/02 06:35:49;;;;;;;10.55;8.00;;;;;;;22.80;49.75;93777.31;5060847;28;20120;-58
2023/06/02 06:38:16;;;;;;;12.57;8.35;;;;;;;22.12;53.21;93783.16;5038535;28;20119;-58
2023/06/02 06:40:43;;;;;;;10.70;7.95;;;;;;;22.05;52.57;93782.81;5062892;28;20067;-60
2023/06/02 06:43:10;;;;;;;11.37;7.60;;;;;;;24.02;48.11;93778.38;5030761;28;20041;-63
2023/06/02 06:45:50;;;;;;;11.38;7.50;;;;;;;22.51;52.25;93785.53;5043588;28;20078;-58
2023/06/02 06:48:16;;;;;;;10.90;8.00;;;;;;;22.71;48.60;93786.69;5049728;28;20041;-62
2023/06/02 06:50:43;;;;;;;11.00;7.88;;;;;;;24.90;46.95;93783.75;5033250;28;20047;-57
2023/06/02 06:53:11;;;;;;;9.85;7.80;;;;;;;21.92;51.53;93792.34;5056462;28;20493;-58
2023/06/02 06:55:38;;;;;;;12.87;8.03;;;;;;;23.52;49.58;93779.78;5040862;28;20040;-58
2023/06/02 06:58:05;;;;;;;11.40;7.65;;;;;;;21.80;50.45;93784.38;5051832;28;20122;-59
2023/06/02 07:00:31;;;;;;;13.15;7.60;;;;;;;24.00;46.69;93777.38;5044393;28;20049;-60
2023/06/02 07:02:58;;;;;;;12.00;7.28;;;;;;;25.83;43.61;93787.28;5059334;28;20047;-61
2023/06/02 07:05:25;;;;;;;9.93;7.63;;;;;;;22.15;49.24;93789.78;5035695;28;20039;-57
2023/06/02 07:07:52;;;;;;;10.63;7.10;;;;;;;25.70;44.05;93782.25;5037932;28;20473;-58
2023/06/02 07:10:19;;;;;;;9.57;7.10;;;;;;;24.87;43.86;93779.19;5036167;28;20116;-58
2023/06/02 07:12:46;;;;;;;14.43;7.20;;;;;;;28.13;37.65;93768.78;5038090;28;20392;-61
2023/06/02 07:15:13;;;;;;;11.77;7.35;;;;;;;26.02;40.03;93781.88;5026053;28;20365;-58
2023/06/02 07:17:41;;;;;;;10.52;6.47;;;;;;;29.35;35.68;93760.13;5056588;28;20052;-61
2023/06/02 07:20:09;;;;;;;9.77;6.93;;;;;;;28.17;36.70;93771.28;5050154;28;20052;-57
2023/06/02 07:22:36;;;;;;;10.23;6.78;;;;;;;25.88;40.76;93775.28;5039674;28;20046;-58
2023/06/02 07:25:04;;;;;;;10.65;7.13;;;;;;;24.80;42.98;93776.88;5049922;28;20037;-58
2023/06/02 07:27:32;;;;;;;8.48;6.70;;;;;;;26.97;39.01;93776.78;5059373;28;20311;-57
2023/06/02 07:29:59;;;;;;;11.18;7.10;;;;;;;22.26;48.63;93777.97;5052020;28;20032;-58
2023/06/02 07:32:26;;;;;;;11.10;6.70;;;;;;;25.41;41.55;93778.03;5033127;28;20053;-58
2023/06/02 07:34:53;;;;;;;8.45;6.40;;;;;;;28.87;35.89;93771.22;5049898;28;20071;-60
2023/06/02 07:37:20;;;;;;;11.32;6.90;;;;;;;25.22;42.79;93772.22;5049772;28;20374;-58
2023/06/02 07:39:47;;;;;;;9.75;6.88;;;;;;;25.47;40.86;93775.19;5048861;28;20044;-62
2023/06/02 07:42:14;;;;;;;8.70;6.35;;;;;;;27.63;37.07;93773.03;5063815;28;20047;-58
2023/06/02 07:44:41;;;;;;;10.87;5.90;;;;;;;29.04;34.94;93766.03;5049367;28;20048;-58
2023/06/02 07:47:08;;;;;;;10.70;6.20;;;;;;;26.97;37.60;93779.59;5060674;28;20104;-59
2023/06/02 07:49:35;;;;;;;13.25;10.68;;;;;;;26.84;37.95;93779.47;5052103;28;20041;-60
2023/06/02 07:52:02;;;;;;;11.70;6.30;;;;;;;27.18;38.85;93779.13;5053371;28;20039;-58
2023/06/02 07:54:29;;;;;;;9.90;6.50;;;;;;;22.78;45.80;93772.25;5034107;28;20041;-63
2023/06/02 07:56:56;;;;;;;8.77;5.70;;;;;;;27.70;38.30;93763.94;5041570;28;20040;-60
2023/06/02 07:59:23;;;;;;;9.07;6.20;;;;;;;25.08;41.56;93774.03;5052077;28;20037;-58
2023/06/02 08:01:51;;;;;;;8.95;6.35;;;;;;;26.54;38.91;93771.00;5033321;28;20474;-59
2023/06/02 08:04:18;;;;;;;8.18;6.13;;;;;;;25.04;41.45;93767.16;5031885;28;20033;-65
2023/06/02 08:06:45;;;;;;;9.48;6.03;;;;;;;25.55;39.77;93772.63;5055276;28;20474;-62
2023/06/02 08:09:12;;;;;;;8.63;5.70;;;;;;;28.17;35.93;93774.88;5040324;28;20083;-59
2023/06/02 08:11:39;;;;;;;10.20;6.25;;;;;;;24.67;40.76;93777.44;5028350;28;20052;-62
2023/06/02 08:14:06;;;;;;;10.25;5.80;;;;;;;27.03;38.29;93773.91;5043532;28;20060;-61
2023/06/02 08:16:33;;;;;;;8.25;5.60;;;;;;;26.47;38.58;93767.47;5048911;28;20068;-58
2023/06/02 08:19:20;;;;;;;7.78;5.65;;;;;;;27.80;36.14;93759.44;5054383;28;20041;-58
2023/06/02 08:21:47;;;;;;;8.77;5.97;;;;;;;24.55;41.40;93770.28;5037215;28;20043;-58
2023/06/02 08:24:15;;;;;;;9.25;6.25;;;;;;;26.77;38.99;93766.75;5033393;28;20147;-60
2023/06/02 08:26:43;;;;;;;9.57;5.80;;;;;;;26.35;39.35;93765.28;5035825;28;20037;-59
2023/06/02 08:29:10;;;;;;;8.05;5.97;;;;;;;27.07;36.75;93763.13;5034745;28;20030;-59
2023/06/02 08:31:37;;;;;;;8.18;5.85;;;;;;;25.41;40.01;93757.59;5043539;28;20497;-63
2023/06/02 08:34:04;;;;;;;7.83;5.60;;;;;;;26.61;37.89;93762.78;5043159;28;20493;-58
2023/06/02 08:36:32;;;;;;;6.65;5.38;;;;;;;24.60;42.47;93768.75;5045937;28;20444;-58
2023/06/02 08:39:06;;;;;;;10.73;5.90;;;;;;;24.49;42.38;93767.47;5050946;28;20032;-58
2023/06/02 08:41:38;;;;;;;10.10;6.00;;;;;;;25.20;40.41;93763.53;5058312;28;20081;-62
2023/06/02 08:44:05;;;;;;;8.77;5.72;;;;;;;25.44;40.48;93762.97;5042463;28;20385;-58
2023/06/02 08:46:32;;;;;;;8.83;5.70;;;;;;;26.10;38.76;93765.97;5041902;28;20045;-58
2023/06/02 08:49:00;;;;;;;8.80;5.60;;;;;;;28.21;35.08;93757.63;5053055;28;20044;-58
2023/06/02 08:51:28;;;;;;;7.82;5.45;;;;;;;29.33;34.44;93752.16;5039694;28;20064;-59
2023/06/02 08:53:56;;;;;;;8.65;5.82;;;;;;;26.36;36.86;93759.13;5060814;28;20041;-61
2023/06/02 08:56:23;;;;;;;9.98;5.30;;;;;;;25.90;39.73;93763.53;5053153;28;20041;-63
2023/06/02 08:58:50;;;;;;;8.43;5.43;;;;;;;25.82;39.70;93754.84;5054853;28;20380;-59
2023/06/02 09:01:16;;;;;;;7.35;5.10;;;;;;;27.77;37.07;93754.09;5049150;28;20052;-63
2023/06/02 09:03:47;;;;;;;9.32;5.65;;;;;;;25.96;39.50;93757.84;5060919;28;20057;-58
2023/06/02 09:06:28;;;;;;;7.90;5.88;;;;;;;26.22;38.22;93758.22;5048095;28;20037;-62
2023/06/02 09:09:00;;;;;;;8.43;5.93;;;;;;;26.30;37.97;93764.03;5047355;28;21563;-59
2023/06/02 09:11:29;;;;;;;8.17;5.23;;;;;;;28.93;34.22;93749.28;5052472;28;20056;-58
2023/06/02 09:13:57;;;;;;;8.70;5.85;;;;;;;28.12;34.54;93750.31;5063859;28;20032;-58
2023/06/02 09:16:38;;;;;;;10.75;5.10;;;;;;;27.49;36.01;93752.44;5054865;28;20040;-58
2023/06/02 09:19:05;;;;;;;8.10;5.60;;;;;;;23.81;42.90;93761.03;5048792;28;20036;-58
2023/06/02 09:21:33;;;;;;;9.30;5.85;;;;;;;27.29;37.14;93748.81;5040264;28;20057;-62
2023/06/02 09:24:01;;;;;;;8.70;5.80;;;;;;;26.46;39.34;93748.28;5048032;28;20059;-58
2023/06/02 09:26:48;;;;;;;9.40;5.60;;;;;;;24.48;40.84;93749.09;5048382;28;20039;-61
2023/06/02 09:29:15;;;;;;;8.10;5.20;;;;;;;28.02;36.78;93749.94;5056266;28;20401;-58
2023/06/02 09:31:48;;;;;;;9.32;6.28;;;;;;;25.87;38.66;93754.03;5047104;28;20094;-58
2023/06/02 09:34:16;;;;;;;8.30;6.18;;;;;;;25.18;40.92;93749.25;5048400;28;20043;-59
2023/06/02 09:36:46;;;;;;;9.13;5.77;;;;;;;26.93;37.06;93758.66;5048188;28;20065;-59
2023/06/02 09:39:13;;;;;;;8.95;5.90;;;;;;;24.39;42.55;93749.34;5050914;28;20055;-64
2023/06/02 09:41:41;;;;;;;9.25;5.90;;;;;;;25.38;41.03;93741.81;5046940;28;20045;-59
2023/06/02 09:44:15;;;;;;;11.65;5.32;;;;;;;29.22;35.03;93739.03;5041473;28;20037;-58
2023/06/02 09:46:45;;;;;;;8.95;5.95;;;;;;;24.18;41.33;93748.84;5034414;28;20044;-58
2023/06/02 09:49:12;;;;;;;9.50;6.57;;;;;;;25.05;40.28;93751.81;5049875;28;20033;-58
2023/06/02 09:51:39;;;;;;;10.02;5.50;;;;;;;26.19;38.84;93755.69;5048420;28;20550;-64
2023/06/02 09:54:08;;;;;;;8.98;6.00;;;;;;;28.59;33.99;93744.22;5032408;28;20041;-64
2023/06/02 09:56:38;;;;;;;8.15;5.10;;;;;;;33.26;28.89;93741.44;5041459;28;20041;-61
2023/06/02 09:59:06;;;;;;;7.53;5.10;;;;;;;33.68;27.22;93749.53;5068038;28;20048;-59
2023/06/02 10:01:37;;;;;;;6.37;4.70;;;;;;;33.18;27.61;93747.16;5056339;28;20175;-58
2023/06/02 10:04:05;;;;;;;8.13;4.82;;;;;;;34.96;25.83;93745.13;5051739;28;20063;-59
2023/06/02 10:06:52;;;;;;;7.40;5.20;;;;;;;30.71;29.13;93749.44;5050978;28;20433;-62
2023/06/02 10:09:32;;;;;;;7.47;4.68;;;;;;;34.51;25.93;93743.31;5044199;28;20048;-58
2023/06/02 10:12:36;;;;;;;7.20;4.60;;;;;;;35.01;24.50;93737.66;5061243;28;21977;-59
2023/06/02 10:15:06;;;;;;;6.63;4.70;;;;;;;35.26;23.83;93739.78;5063873;28;21578;-60
2023/06/02 10:17:46;;;;;;;7.03;4.68;;;;;;;36.47;23.33;93744.69;5043667;28;20162;-59
2023/06/02 10:20:35;;;;;;;7.40;4.70;;;;;;;30.32;29.05;93751.91;5055035;28;20068;-58
2023/06/02 10:23:07;;;;;;;8.45;4.60;;;;;;;30.16;29.61;93742.47;5037572;28;20426;-59
2023/06/02 10:25:46;;;;;;;9.10;4.70;;;;;;;30.51;28.70;93731.91;5058578;28;20117;-60
2023/06/02 10:28:13;;;;;;;7.13;4.67;;;;;;;29.86;29.18;93740.84;5049063;28;20032;-62
2023/06/02 10:30:40;;;;;;;7.80;4.50;;;;;;;32.33;26.45;93728.47;5051867;28;20056;-58
2023/06/02 10:33:07;;;;;;;8.18;5.40;;;;;;;29.32;29.60;93733.69;5045635;28;20420;-62
2023/06/02 10:35:57;;;;;;;8.93;4.90;;;;;;;29.71;29.32;93739.84;5055015;28;20094;-58
2023/06/02 10:38:29;;;;;;;7.18;5.00;;;;;;;28.67;30.37;93733.06;5052253;28;20056;-61
2023/06/02 10:40:59;;;;;;;8.33;5.40;;;;;;;28.90;31.62;93730.59;5054300;28;20110;-59
2023/06/02 10:43:26;;;;;;;10.48;5.53;;;;;;;28.25;32.46;93736.28;5050272;28;20072;-58
2023/06/02 10:45:55;;;;;;;9.65;5.80;;;;;;;28.73;31.94;93736.53;5051003;28;20041;-61
2023/06/02 10:48:41;;;;;;;6.85;5.10;;;;;;;28.38;32.78;93737.63;5049080;28;20036;-59
2023/06/02 10:51:10;;;;;;;7.65;5.32;;;;;;;28.82;31.54;93732.56;5043892;28;20724;-62
2023/06/02 10:54:01;;;;;;;8.07;5.00;;;;;;;29.80;30.30;93725.28;5039490;28;20081;-63
2023/06/02 10:56:34;;;;;;;12.38;5.65;;;;;;;27.89;32.51;93730.16;5050132;28;20043;-58
2023/06/02 10:59:05;;;;;;;10.75;5.13;;;;;;;26.82;33.95;93734.19;5051972;28;20080;-57
2023/06/02 11:01:49;;;;;;;8.55;5.55;;;;;;;26.55;35.95;93728.25;5043742;28;20045;-63
2023/06/02 11:04:36;;;;;;;8.50;5.97;;;;;;;26.63;36.66;93729.25;5050141;28;20623;-58
2023/06/02 11:07:21;;;;;;;9.53;6.03;;;;;;;26.32;36.45;93727.72;5041615;28;21476;-58
2023/06/02 11:09:50;;;;;;;8.20;5.70;;;;;;;27.44;35.68;93722.25;5041666;28;20063;-62
2023/06/02 11:12:17;;;;;;;9.25;5.57;;;;;;;27.92;34.66;93728.31;5043510;28;20432;-57
2023/06/02 11:15:04;;;;;;;7.78;5.30;;;;;;;28.26;34.33;93718.03;5048263;28;20049;-57
2023/06/02 11:17:34;;;;;;;9.68;5.50;;;;;;;27.98;34.50;93715.66;5044908;28;20056;-60
2023/06/02 11:20:06;;;;;;;10.07;4.97;;;;;;;28.33;33.21;93718.72;5062950;28;20155;-60
2023/06/02 11:22:33;;;;;;;8.23;5.15;;;;;;;28.19;33.34;93715.84;5049995;28;20048;-60
2023/06/02 11:25:05;;;;;;;9.45;5.32;;;;;;;28.00;33.96;93713.06;5050243;28;20033;-60
2023/06/02 11:27:45;;;;;;;8.18;4.90;;;;;;;27.48;34.60;93712.19;5044438;28;20098;-57
2023/06/02 11:30:17;;;;;;;7.13;5.00;;;;;;;28.11;33.19;93709.31;5050149;28;20497;-58
2023/06/02 11:32:48;;;;;;;9.00;5.33;;;;;;;27.25;34.61;93711.72;5052345;28;20109;-62
2023/06/02 11:35:18;;;;;;;8.40;5.43;;;;;;;25.02;37.47;93719.19;5056362;28;20036;-58